sensor_id;sensor_type;location;lat;lon;timestamp;pressure;altitude;pressure_sealevel;temperature;humidity
81155;BME280;70631;50.436;7.826;2023-07-31T00:00:01;98883.81;;;18.44;67.57
81155;BME280;70631;50.436;7.826;2023-07-31T00:02:27;98878.41;;;18.44;67.10
81155;BME280;70631;50.436;7.826;2023-07-31T00:04:52;98879.25;;;18.44;67.07
81155;BME280;70631;50.436;7.826;2023-07-31T00:07:17;98871.31;;;18.43;67.04
81155;BME280;70631;50.436;7.826;2023-07-31T00:09:43;98878.41;;;18.44;67.29
81155;BME280;70631;50.436;7.826;2023-07-31T00:12:08;98881.47;;;18.41;66.99
81155;BME280;70631;50.436;7.826;2023-07-31T00:14:33;98878.97;;;18.39;67.18
81155;BME280;70631;50.436;7.826;2023-07-31T00:16:59;98879.81;;;18.40;67.08
81155;BME280;70631;50.436;7.826;2023-07-31T00:19:24;98882.50;;;18.40;66.98
81155;BME280;70631;50.436;7.826;2023-07-31T00:21:49;98865.69;;;18.38;66.83
81155;BME280;70631;50.436;7.826;2023-07-31T00:24:14;98848.88;;;18.36;67.53
81155;BME280;70631;50.436;7.826;2023-07-31T00:26:40;98852.00;;;18.32;67.47
81155;BME280;70631;50.436;7.826;2023-07-31T00:29:05;98853.66;;;18.33;67.35
81155;BME280;70631;50.436;7.826;2023-07-31T00:31:30;98850.53;;;18.30;67.51
81155;BME280;70631;50.436;7.826;2023-07-31T00:33:55;98844.72;;;18.26;67.37
81155;BME280;70631;50.436;7.826;2023-07-31T00:36:21;98849.06;;;18.27;67.80
81155;BME280;70631;50.436;7.826;2023-07-31T00:38:46;98842.66;;;18.28;67.77
81155;BME280;70631;50.436;7.826;2023-07-31T00:41:11;98838.91;;;18.29;68.18
81155;BME280;70631;50.436;7.826;2023-07-31T00:43:36;98840.56;;;18.30;68.42
81155;BME280;70631;50.436;7.826;2023-07-31T00:46:02;98851.16;;;18.32;68.15
81155;BME280;70631;50.436;7.826;2023-07-31T00:48:27;98848.06;;;18.35;67.81
81155;BME280;70631;50.436;7.826;2023-07-31T00:50:53;98844.94;;;18.38;67.78
81155;BME280;70631;50.436;7.826;2023-07-31T00:53:18;98848.47;;;18.39;67.79
81155;BME280;70631;50.436;7.826;2023-07-31T00:55:44;98837.69;;;18.39;67.75
81155;BME280;70631;50.436;7.826;2023-07-31T00:58:09;98844.53;;;18.41;67.65
81155;BME280;70631;50.436;7.826;2023-07-31T01:00:35;98837.28;;;18.42;67.67
81155;BME280;70631;50.436;7.826;2023-07-31T01:03:00;98841.00;;;18.41;67.53
81155;BME280;70631;50.436;7.826;2023-07-31T01:05:39;98836.44;;;18.35;67.50
81155;BME280;70631;50.436;7.826;2023-07-31T01:08:24;98826.06;;;18.31;67.24
81155;BME280;70631;50.436;7.826;2023-07-31T01:11:00;98827.94;;;18.31;67.54
81155;BME280;70631;50.436;7.826;2023-07-31T01:13:28;98837.28;;;18.35;67.58
81155;BME280;70631;50.436;7.826;2023-07-31T01:15:53;98819.84;;;18.31;67.82
81155;BME280;70631;50.436;7.826;2023-07-31T01:18:19;98827.50;;;18.34;67.63
81155;BME280;70631;50.436;7.826;2023-07-31T01:20:48;98832.28;;;18.32;67.74
81155;BME280;70631;50.436;7.826;2023-07-31T01:23:51;98829.97;;;18.22;67.61
81155;BME280;70631;50.436;7.826;2023-07-31T01:26:23;98831.44;;;18.31;67.74
81155;BME280;70631;50.436;7.826;2023-07-31T01:28:58;98825.44;;;18.29;67.90
81155;BME280;70631;50.436;7.826;2023-07-31T01:31:28;98821.91;;;18.29;67.67
81155;BME280;70631;50.436;7.826;2023-07-31T01:33:57;98828.13;;;18.29;67.78
81155;BME280;70631;50.436;7.826;2023-07-31T01:36:23;98822.31;;;18.32;68.06
81155;BME280;70631;50.436;7.826;2023-07-31T01:38:48;98829.19;;;18.35;67.62
81155;BME280;70631;50.436;7.826;2023-07-31T01:41:19;98821.09;;;18.35;67.92
81155;BME280;70631;50.436;7.826;2023-07-31T01:43:48;98819.00;;;18.37;67.56
81155;BME280;70631;50.436;7.826;2023-07-31T01:46:13;98819.63;;;18.39;67.93
81155;BME280;70631;50.436;7.826;2023-07-31T01:48:38;98825.66;;;18.41;67.64
81155;BME280;70631;50.436;7.826;2023-07-31T01:51:03;98817.78;;;18.40;67.56
81155;BME280;70631;50.436;7.826;2023-07-31T01:53:30;98820.47;;;18.40;67.78
81155;BME280;70631;50.436;7.826;2023-07-31T01:55:56;98808.66;;;18.41;67.35
81155;BME280;70631;50.436;7.826;2023-07-31T01:58:21;98803.66;;;18.38;67.42
81155;BME280;70631;50.436;7.826;2023-07-31T02:00:46;98811.97;;;18.36;67.84
81155;BME280;70631;50.436;7.826;2023-07-31T02:03:12;98812.38;;;18.33;67.64
81155;BME280;70631;50.436;7.826;2023-07-31T02:05:47;98808.41;;;18.29;67.86
81155;BME280;70631;50.436;7.826;2023-07-31T02:08:13;98806.13;;;18.32;67.78
81155;BME280;70631;50.436;7.826;2023-07-31T02:10:38;98811.34;;;18.34;67.95
81155;BME280;70631;50.436;7.826;2023-07-31T02:13:03;98814.84;;;18.35;67.83
81155;BME280;70631;50.436;7.826;2023-07-31T02:15:30;98798.69;;;18.35;67.89
81155;BME280;70631;50.436;7.826;2023-07-31T02:17:55;98798.47;;;18.36;67.99
81155;BME280;70631;50.436;7.826;2023-07-31T02:20:20;98799.09;;;18.31;68.24
81155;BME280;70631;50.436;7.826;2023-07-31T02:22:46;98790.56;;;18.28;68.15
81155;BME280;70631;50.436;7.826;2023-07-31T02:25:11;98789.53;;;18.22;68.32
81155;BME280;70631;50.436;7.826;2023-07-31T02:27:36;98784.91;;;18.16;68.69
81155;BME280;70631;50.436;7.826;2023-07-31T02:30:02;98782.84;;;18.12;68.56
81155;BME280;70631;50.436;7.826;2023-07-31T02:32:27;98780.34;;;18.10;68.73
81155;BME280;70631;50.436;7.826;2023-07-31T02:34:52;98787.81;;;18.08;68.66
81155;BME280;70631;50.436;7.826;2023-07-31T02:37:17;98786.97;;;18.08;68.93
81155;BME280;70631;50.436;7.826;2023-07-31T02:39:43;98790.91;;;18.05;68.84
81155;BME280;70631;50.436;7.826;2023-07-31T02:42:08;98796.28;;;18.05;68.83
81155;BME280;70631;50.436;7.826;2023-07-31T02:44:33;98788.63;;;18.02;68.80
81155;BME280;70631;50.436;7.826;2023-07-31T02:46:58;98794.00;;;18.02;68.74
81155;BME280;70631;50.436;7.826;2023-07-31T02:49:24;98797.75;;;18.01;68.89
81155;BME280;70631;50.436;7.826;2023-07-31T02:51:49;98797.06;;;17.99;69.07
81155;BME280;70631;50.436;7.826;2023-07-31T02:54:14;98800.44;;;18.01;69.05
81155;BME280;70631;50.436;7.826;2023-07-31T02:56:39;98803.13;;;18.01;68.97
81155;BME280;70631;50.436;7.826;2023-07-31T02:59:05;98801.06;;;18.03;69.11
81155;BME280;70631;50.436;7.826;2023-07-31T03:01:30;98797.97;;;18.06;68.74
81155;BME280;70631;50.436;7.826;2023-07-31T03:03:56;98799.63;;;18.07;69.02
81155;BME280;70631;50.436;7.826;2023-07-31T03:06:21;98794.03;;;18.09;69.18
81155;BME280;70631;50.436;7.826;2023-07-31T03:08:46;98791.97;;;18.11;69.27
81155;BME280;70631;50.436;7.826;2023-07-31T03:11:11;98792.38;;;18.14;69.08
81155;BME280;70631;50.436;7.826;2023-07-31T03:13:37;98787.81;;;18.15;69.04
81155;BME280;70631;50.436;7.826;2023-07-31T03:16:02;98785.94;;;18.15;69.03
81155;BME280;70631;50.436;7.826;2023-07-31T03:18:27;98794.03;;;18.15;69.58
81155;BME280;70631;50.436;7.826;2023-07-31T03:20:53;98789.88;;;18.13;69.26
81155;BME280;70631;50.436;7.826;2023-07-31T03:23:18;98787.00;;;18.14;69.41
81155;BME280;70631;50.436;7.826;2023-07-31T03:26:00;98785.72;;;18.10;69.37
81155;BME280;70631;50.436;7.826;2023-07-31T03:28:25;98783.25;;;18.15;69.48
81155;BME280;70631;50.436;7.826;2023-07-31T03:30:51;98789.06;;;18.19;69.61
81155;BME280;70631;50.436;7.826;2023-07-31T03:33:17;98788.44;;;18.17;69.63
81155;BME280;70631;50.436;7.826;2023-07-31T03:35:42;98787.63;;;18.16;69.81
81155;BME280;70631;50.436;7.826;2023-07-31T03:38:07;98779.94;;;18.13;69.26
81155;BME280;70631;50.436;7.826;2023-07-31T03:40:32;98781.19;;;18.17;69.54
81155;BME280;70631;50.436;7.826;2023-07-31T03:42:58;98778.69;;;18.16;69.57
81155;BME280;70631;50.436;7.826;2023-07-31T03:45:23;98780.97;;;18.19;69.17
81155;BME280;70631;50.436;7.826;2023-07-31T03:47:48;98782.84;;;18.18;69.58
81155;BME280;70631;50.436;7.826;2023-07-31T03:50:14;98780.78;;;18.20;69.75
81155;BME280;70631;50.436;7.826;2023-07-31T03:52:41;98778.75;;;18.22;69.75
81155;BME280;70631;50.436;7.826;2023-07-31T03:55:06;98770.25;;;18.25;69.66
81155;BME280;70631;50.436;7.826;2023-07-31T03:57:31;98775.44;;;18.27;69.78
81155;BME280;70631;50.436;7.826;2023-07-31T03:59:57;98768.16;;;18.27;69.45
81155;BME280;70631;50.436;7.826;2023-07-31T04:02:23;98765.47;;;18.27;69.43
81155;BME280;70631;50.436;7.826;2023-07-31T04:04:48;98765.06;;;18.30;69.51
81155;BME280;70631;50.436;7.826;2023-07-31T04:07:13;98759.03;;;18.28;69.58
81155;BME280;70631;50.436;7.826;2023-07-31T04:09:39;98751.78;;;18.29;69.72
81155;BME280;70631;50.436;7.826;2023-07-31T04:12:04;98746.16;;;18.24;69.99
81155;BME280;70631;50.436;7.826;2023-07-31T04:14:29;98737.84;;;18.19;69.86
81155;BME280;70631;50.436;7.826;2023-07-31T04:16:54;98742.41;;;18.18;69.80
81155;BME280;70631;50.436;7.826;2023-07-31T04:19:20;98740.97;;;18.22;70.03
81155;BME280;70631;50.436;7.826;2023-07-31T04:21:45;98739.69;;;18.18;70.02
81155;BME280;70631;50.436;7.826;2023-07-31T04:24:10;98738.25;;;18.16;70.11
81155;BME280;70631;50.436;7.826;2023-07-31T04:26:36;98739.28;;;18.15;70.28
81155;BME280;70631;50.436;7.826;2023-07-31T04:29:01;98748.00;;;18.17;70.65
81155;BME280;70631;50.436;7.826;2023-07-31T04:31:26;98758.38;;;18.13;70.49
81155;BME280;70631;50.436;7.826;2023-07-31T04:33:51;98757.94;;;18.16;70.80
81155;BME280;70631;50.436;7.826;2023-07-31T04:36:16;98756.72;;;18.19;70.96
81155;BME280;70631;50.436;7.826;2023-07-31T04:38:42;98750.06;;;18.21;71.02
81155;BME280;70631;50.436;7.826;2023-07-31T04:41:07;98751.78;;;18.22;70.63
81155;BME280;70631;50.436;7.826;2023-07-31T04:43:32;98749.91;;;18.23;70.76
81155;BME280;70631;50.436;7.826;2023-07-31T04:45:58;98748.41;;;18.20;70.92
81155;BME280;70631;50.436;7.826;2023-07-31T04:48:23;98746.56;;;18.21;70.95
81155;BME280;70631;50.436;7.826;2023-07-31T04:50:48;98749.06;;;18.22;70.69
81155;BME280;70631;50.436;7.826;2023-07-31T04:53:14;98749.28;;;18.27;70.11
81155;BME280;70631;50.436;7.826;2023-07-31T04:55:39;98748.88;;;18.30;70.92
81155;BME280;70631;50.436;7.826;2023-07-31T04:58:04;98749.72;;;18.31;70.95
81155;BME280;70631;50.436;7.826;2023-07-31T05:00:29;98746.81;;;18.32;70.94
81155;BME280;70631;50.436;7.826;2023-07-31T05:02:55;98746.38;;;18.29;71.00
81155;BME280;70631;50.436;7.826;2023-07-31T05:05:20;98748.47;;;18.27;71.35
81155;BME280;70631;50.436;7.826;2023-07-31T05:07:46;98746.19;;;18.30;71.38
81155;BME280;70631;50.436;7.826;2023-07-31T05:10:11;98755.09;;;18.31;71.23
81155;BME280;70631;50.436;7.826;2023-07-31T05:12:36;98741.41;;;18.32;71.14
81155;BME280;70631;50.436;7.826;2023-07-31T05:15:01;98739.75;;;18.38;71.06
81155;BME280;70631;50.436;7.826;2023-07-31T05:17:27;98744.31;;;18.38;71.12
81155;BME280;70631;50.436;7.826;2023-07-31T05:19:52;98741.63;;;18.38;71.39
81155;BME280;70631;50.436;7.826;2023-07-31T05:22:17;98748.47;;;18.40;71.37
81155;BME280;70631;50.436;7.826;2023-07-31T05:24:43;98746.41;;;18.42;71.36
81155;BME280;70631;50.436;7.826;2023-07-31T05:27:08;98755.31;;;18.43;71.19
81155;BME280;70631;50.436;7.826;2023-07-31T05:29:34;98746.00;;;18.45;71.40
81155;BME280;70631;50.436;7.826;2023-07-31T05:32:00;98753.47;;;18.50;71.37
81155;BME280;70631;50.436;7.826;2023-07-31T05:34:25;98745.19;;;18.51;71.23
81155;BME280;70631;50.436;7.826;2023-07-31T05:36:50;98751.00;;;18.55;71.01
81155;BME280;70631;50.436;7.826;2023-07-31T05:39:15;98741.66;;;18.51;71.35
81155;BME280;70631;50.436;7.826;2023-07-31T05:41:41;98742.91;;;18.55;71.22
81155;BME280;70631;50.436;7.826;2023-07-31T05:44:06;98727.34;;;18.57;71.24
81155;BME280;70631;50.436;7.826;2023-07-31T05:46:31;98721.53;;;18.60;71.15
81155;BME280;70631;50.436;7.826;2023-07-31T05:48:56;98726.53;;;18.63;71.13
81155;BME280;70631;50.436;7.826;2023-07-31T05:51:22;98737.31;;;18.63;70.97
81155;BME280;70631;50.436;7.826;2023-07-31T05:53:47;98725.03;;;18.60;70.95
81155;BME280;70631;50.436;7.826;2023-07-31T05:56:12;98726.91;;;18.60;70.91
81155;BME280;70631;50.436;7.826;2023-07-31T05:58:38;98724.84;;;18.62;70.89
81155;BME280;70631;50.436;7.826;2023-07-31T06:01:03;98716.19;;;18.67;70.73
81155;BME280;70631;50.436;7.826;2023-07-31T06:03:28;98719.69;;;18.74;70.82
81155;BME280;70631;50.436;7.826;2023-07-31T06:05:53;98713.66;;;18.78;70.90
81155;BME280;70631;50.436;7.826;2023-07-31T06:08:19;98714.72;;;18.71;71.43
81155;BME280;70631;50.436;7.826;2023-07-31T06:10:44;98715.34;;;18.73;71.41
81155;BME280;70631;50.436;7.826;2023-07-31T06:13:09;98717.41;;;18.77;71.51
81155;BME280;70631;50.436;7.826;2023-07-31T06:15:34;98706.63;;;18.90;71.58
81155;BME280;70631;50.436;7.826;2023-07-31T06:18:00;98709.72;;;19.01;71.31
81155;BME280;70631;50.436;7.826;2023-07-31T06:20:27;98717.41;;;19.10;70.91
81155;BME280;70631;50.436;7.826;2023-07-31T06:22:52;98716.94;;;19.27;70.26
81155;BME280;70631;50.436;7.826;2023-07-31T06:25:17;98714.44;;;19.38;70.34
81155;BME280;70631;50.436;7.826;2023-07-31T06:27:43;98709.41;;;19.48;69.55
81155;BME280;70631;50.436;7.826;2023-07-31T06:30:08;98696.09;;;19.47;69.13
81155;BME280;70631;50.436;7.826;2023-07-31T06:32:34;98695.06;;;19.48;69.20
81155;BME280;70631;50.436;7.826;2023-07-31T06:34:59;98689.44;;;19.49;68.83
81155;BME280;70631;50.436;7.826;2023-07-31T06:37:24;98696.13;;;19.53;68.73
81155;BME280;70631;50.436;7.826;2023-07-31T06:39:49;98698.19;;;19.58;68.50
81155;BME280;70631;50.436;7.826;2023-07-31T06:42:15;98699.81;;;19.66;67.93
81155;BME280;70631;50.436;7.826;2023-07-31T06:44:40;98689.41;;;19.76;68.04
81155;BME280;70631;50.436;7.826;2023-07-31T06:47:05;98702.13;;;20.07;67.22
81155;BME280;70631;50.436;7.826;2023-07-31T06:49:33;98684.50;;;20.29;66.48
81155;BME280;70631;50.436;7.826;2023-07-31T06:51:58;98679.88;;;20.36;66.64
81155;BME280;70631;50.436;7.826;2023-07-31T06:54:24;98693.75;;;20.15;67.46
81155;BME280;70631;50.436;7.826;2023-07-31T06:56:49;98679.31;;;19.96;67.60
81155;BME280;70631;50.436;7.826;2023-07-31T06:59:14;98674.41;;;19.80;68.02
81155;BME280;70631;50.436;7.826;2023-07-31T07:01:39;98682.78;;;19.65;68.03
81155;BME280;70631;50.436;7.826;2023-07-31T07:04:05;98685.09;;;19.62;68.84
81155;BME280;70631;50.436;7.826;2023-07-31T07:06:30;98679.81;;;19.73;68.87
81155;BME280;70631;50.436;7.826;2023-07-31T07:08:55;98679.50;;;19.95;68.39
81155;BME280;70631;50.436;7.826;2023-07-31T07:11:21;98673.81;;;20.09;68.07
81155;BME280;70631;50.436;7.826;2023-07-31T07:13:46;98672.09;;;20.15;67.25
81155;BME280;70631;50.436;7.826;2023-07-31T07:16:11;98670.44;;;20.14;67.64
81155;BME280;70631;50.436;7.826;2023-07-31T07:18:37;98676.69;;;20.14;68.09
81155;BME280;70631;50.436;7.826;2023-07-31T07:21:02;98680.88;;;20.17;68.14
81155;BME280;70631;50.436;7.826;2023-07-31T07:23:27;98676.09;;;20.12;67.89
81155;BME280;70631;50.436;7.826;2023-07-31T07:25:53;98671.72;;;20.11;67.93
81155;BME280;70631;50.436;7.826;2023-07-31T07:28:18;98676.44;;;20.23;67.73
81155;BME280;70631;50.436;7.826;2023-07-31T07:30:43;98683.06;;;20.27;67.24
81155;BME280;70631;50.436;7.826;2023-07-31T07:33:09;98684.50;;;20.29;67.53
81155;BME280;70631;50.436;7.826;2023-07-31T07:35:34;98680.09;;;20.35;67.49
81155;BME280;70631;50.436;7.826;2023-07-31T07:38:04;98672.81;;;20.42;67.02
81155;BME280;70631;50.436;7.826;2023-07-31T07:40:29;98673.19;;;20.46;67.16
81155;BME280;70631;50.436;7.826;2023-07-31T07:42:54;98666.13;;;20.44;66.70
81155;BME280;70631;50.436;7.826;2023-07-31T07:45:19;98662.66;;;20.62;66.07
81155;BME280;70631;50.436;7.826;2023-07-31T07:47:45;98649.09;;;20.87;65.43
81155;BME280;70631;50.436;7.826;2023-07-31T07:50:10;98654.69;;;21.11;64.19
81155;BME280;70631;50.436;7.826;2023-07-31T07:52:35;98649.97;;;21.24;63.69
81155;BME280;70631;50.436;7.826;2023-07-31T07:55:01;98656.19;;;21.31;63.69
81155;BME280;70631;50.436;7.826;2023-07-31T07:57:27;98654.81;;;21.41;63.79
81155;BME280;70631;50.436;7.826;2023-07-31T07:59:52;98654.88;;;21.71;63.78
81155;BME280;70631;50.436;7.826;2023-07-31T08:02:17;98661.69;;;21.91;62.90
81155;BME280;70631;50.436;7.826;2023-07-31T08:04:43;98657.47;;;21.95;62.74
81155;BME280;70631;50.436;7.826;2023-07-31T08:07:11;98662.41;;;21.99;62.07
81155;BME280;70631;50.436;7.826;2023-07-31T08:09:37;98662.88;;;21.95;61.58
81155;BME280;70631;50.436;7.826;2023-07-31T08:12:02;98655.03;;;21.87;61.50
81155;BME280;70631;50.436;7.826;2023-07-31T08:14:29;98659.75;;;21.80;61.09
81155;BME280;70631;50.436;7.826;2023-07-31T08:16:55;98648.91;;;21.62;61.11
81155;BME280;70631;50.436;7.826;2023-07-31T08:19:20;98651.63;;;21.44;61.84
81155;BME280;70631;50.436;7.826;2023-07-31T08:21:46;98655.41;;;21.24;62.18
81155;BME280;70631;50.436;7.826;2023-07-31T08:24:11;98658.69;;;21.08;62.93
81155;BME280;70631;50.436;7.826;2023-07-31T08:26:36;98665.16;;;21.07;64.44
81155;BME280;70631;50.436;7.826;2023-07-31T08:29:02;98652.66;;;21.06;64.97
81155;BME280;70631;50.436;7.826;2023-07-31T08:31:27;98655.19;;;21.01;64.82
81155;BME280;70631;50.436;7.826;2023-07-31T08:33:54;98668.88;;;20.88;65.25
81155;BME280;70631;50.436;7.826;2023-07-31T08:36:19;98673.34;;;20.75;65.70
81155;BME280;70631;50.436;7.826;2023-07-31T08:38:45;98666.56;;;20.66;66.41
81155;BME280;70631;50.436;7.826;2023-07-31T08:41:10;98662.03;;;20.60;66.80
81155;BME280;70631;50.436;7.826;2023-07-31T08:43:36;98655.03;;;20.53;67.30
81155;BME280;70631;50.436;7.826;2023-07-31T08:46:03;98654.28;;;20.39;68.04
81155;BME280;70631;50.436;7.826;2023-07-31T08:48:29;98644.78;;;19.98;68.75
81155;BME280;70631;50.436;7.826;2023-07-31T08:50:54;98652.38;;;19.76;69.70
81155;BME280;70631;50.436;7.826;2023-07-31T08:53:20;98650.13;;;19.67;69.95
81155;BME280;70631;50.436;7.826;2023-07-31T08:55:46;98657.41;;;19.66;70.41
81155;BME280;70631;50.436;7.826;2023-07-31T08:58:12;98649.50;;;19.65;70.42
81155;BME280;70631;50.436;7.826;2023-07-31T09:00:39;98648.47;;;19.66;71.02
81155;BME280;70631;50.436;7.826;2023-07-31T09:03:09;98658.50;;;19.59;71.26
81155;BME280;70631;50.436;7.826;2023-07-31T09:05:38;98647.25;;;19.62;70.94
81155;BME280;70631;50.436;7.826;2023-07-31T09:08:09;98660.94;;;19.67;71.28
81155;BME280;70631;50.436;7.826;2023-07-31T09:10:35;98653.16;;;19.83;71.02
81155;BME280;70631;50.436;7.826;2023-07-31T09:13:00;98655.81;;;19.90;71.15
81155;BME280;70631;50.436;7.826;2023-07-31T09:15:27;98654.38;;;19.88;71.26
81155;BME280;70631;50.436;7.826;2023-07-31T09:17:59;98651.34;;;19.71;71.60
81155;BME280;70631;50.436;7.826;2023-07-31T09:20:26;98650.56;;;19.64;71.99
81155;BME280;70631;50.436;7.826;2023-07-31T09:22:51;98635.84;;;19.46;72.84
81155;BME280;70631;50.436;7.826;2023-07-31T09:25:23;98637.97;;;19.38;73.43
81155;BME280;70631;50.436;7.826;2023-07-31T09:28:06;98627.38;;;19.36;73.25
81155;BME280;70631;50.436;7.826;2023-07-31T09:30:51;98624.19;;;19.52;72.96
81155;BME280;70631;50.436;7.826;2023-07-31T09:33:17;98619.75;;;19.71;72.42
81155;BME280;70631;50.436;7.826;2023-07-31T09:35:52;98617.38;;;19.88;72.20
81155;BME280;70631;50.436;7.826;2023-07-31T09:38:17;98614.47;;;20.14;72.27
81155;BME280;70631;50.436;7.826;2023-07-31T09:40:44;98616.31;;;20.21;71.38
81155;BME280;70631;50.436;7.826;2023-07-31T09:43:43;98617.00;;;20.09;71.46
81155;BME280;70631;50.436;7.826;2023-07-31T09:46:20;98610.41;;;20.30;71.10
81155;BME280;70631;50.436;7.826;2023-07-31T09:48:46;98613.59;;;20.52;69.94
81155;BME280;70631;50.436;7.826;2023-07-31T09:51:13;98600.47;;;20.74;69.78
81155;BME280;70631;50.436;7.826;2023-07-31T09:53:38;98601.56;;;21.10;68.97
81155;BME280;70631;50.436;7.826;2023-07-31T09:56:04;98596.81;;;21.23;68.49
81155;BME280;70631;50.436;7.826;2023-07-31T09:58:34;98596.44;;;21.20;67.97
81155;BME280;70631;50.436;7.826;2023-07-31T10:01:01;98605.41;;;21.20;67.71
81155;BME280;70631;50.436;7.826;2023-07-31T10:03:27;98605.63;;;21.19;68.06
81155;BME280;70631;50.436;7.826;2023-07-31T10:05:55;98594.41;;;21.15;66.69
81155;BME280;70631;50.436;7.826;2023-07-31T10:08:26;98597.66;;;21.05;67.38
81155;BME280;70631;50.436;7.826;2023-07-31T10:10:52;98588.75;;;20.98;67.15
81155;BME280;70631;50.436;7.826;2023-07-31T10:13:18;98585.09;;;20.93;67.18
81155;BME280;70631;50.436;7.826;2023-07-31T10:15:47;98583.78;;;20.77;67.14
81155;BME280;70631;50.436;7.826;2023-07-31T10:18:13;98589.28;;;20.70;67.35
81155;BME280;70631;50.436;7.826;2023-07-31T10:20:40;98577.25;;;20.66;67.80
81155;BME280;70631;50.436;7.826;2023-07-31T10:23:06;98574.38;;;20.61;67.88
81155;BME280;70631;50.436;7.826;2023-07-31T10:25:31;98577.72;;;20.57;68.17
81155;BME280;70631;50.436;7.826;2023-07-31T10:27:58;98576.88;;;20.63;68.59
81155;BME280;70631;50.436;7.826;2023-07-31T10:30:28;98570.88;;;20.54;68.35
81155;BME280;70631;50.436;7.826;2023-07-31T10:32:54;98572.78;;;20.54;68.07
81155;BME280;70631;50.436;7.826;2023-07-31T10:35:23;98572.69;;;20.42;67.98
81155;BME280;70631;50.436;7.826;2023-07-31T10:37:49;98572.69;;;20.42;67.64
81155;BME280;70631;50.436;7.826;2023-07-31T10:42:51;98576.75;;;20.51;67.62
81155;BME280;70631;50.436;7.826;2023-07-31T10:45:34;98583.59;;;20.54;67.68
81155;BME280;70631;50.436;7.826;2023-07-31T10:48:05;98574.81;;;20.58;66.91
81155;BME280;70631;50.436;7.826;2023-07-31T10:50:38;98573.59;;;20.54;66.71
81155;BME280;70631;50.436;7.826;2023-07-31T10:53:04;98565.81;;;20.64;67.31
81155;BME280;70631;50.436;7.826;2023-07-31T10:57:57;98553.53;;;20.80;66.80
81155;BME280;70631;50.436;7.826;2023-07-31T11:03:01;98546.63;;;21.02;65.17
81155;BME280;70631;50.436;7.826;2023-07-31T11:08:25;98543.09;;;21.20;65.57
81155;BME280;70631;50.436;7.826;2023-07-31T11:11:08;98544.94;;;21.26;65.36
81155;BME280;70631;50.436;7.826;2023-07-31T11:13:40;98526.31;;;21.30;65.08
81155;BME280;70631;50.436;7.826;2023-07-31T11:16:06;98529.97;;;21.54;64.54
81155;BME280;70631;50.436;7.826;2023-07-31T11:18:31;98532.50;;;21.79;64.01
81155;BME280;70631;50.436;7.826;2023-07-31T11:20:56;98531.72;;;22.02;63.46
81155;BME280;70631;50.436;7.826;2023-07-31T11:23:22;98530.72;;;22.26;63.02
81155;BME280;70631;50.436;7.826;2023-07-31T11:25:48;98532.06;;;22.35;62.68
81155;BME280;70631;50.436;7.826;2023-07-31T11:28:15;98533.69;;;22.36;62.47
81155;BME280;70631;50.436;7.826;2023-07-31T11:30:42;98539.72;;;22.38;62.01
81155;BME280;70631;50.436;7.826;2023-07-31T11:33:09;98540.53;;;22.27;62.23
81155;BME280;70631;50.436;7.826;2023-07-31T11:35:40;98536.41;;;22.24;62.61
81155;BME280;70631;50.436;7.826;2023-07-31T11:38:07;98547.38;;;22.18;62.34
81155;BME280;70631;50.436;7.826;2023-07-31T11:40:44;98549.31;;;21.99;62.88
81155;BME280;70631;50.436;7.826;2023-07-31T11:43:10;98537.28;;;21.95;62.98
81155;BME280;70631;50.436;7.826;2023-07-31T11:45:38;98543.53;;;21.95;62.54
81155;BME280;70631;50.436;7.826;2023-07-31T11:48:04;98529.50;;;21.99;62.28
81155;BME280;70631;50.436;7.826;2023-07-31T11:50:33;98530.56;;;21.98;61.92
81155;BME280;70631;50.436;7.826;2023-07-31T11:53:00;98536.22;;;21.96;62.35
81155;BME280;70631;50.436;7.826;2023-07-31T11:55:26;98523.00;;;22.00;61.86
81155;BME280;70631;50.436;7.826;2023-07-31T11:57:52;98518.56;;;22.05;61.34
81155;BME280;70631;50.436;7.826;2023-07-31T12:00:19;98512.44;;;22.21;61.48
81155;BME280;70631;50.436;7.826;2023-07-31T12:02:44;98511.50;;;22.39;61.11
81155;BME280;70631;50.436;7.826;2023-07-31T12:05:14;98514.19;;;22.51;60.19
81155;BME280;70631;50.436;7.826;2023-07-31T12:07:52;98507.22;;;22.67;60.52
81155;BME280;70631;50.436;7.826;2023-07-31T12:10:30;98514.53;;;23.01;59.14
81155;BME280;70631;50.436;7.826;2023-07-31T12:13:10;98506.09;;;23.14;59.29
81155;BME280;70631;50.436;7.826;2023-07-31T12:15:43;98499.91;;;23.59;58.28
81155;BME280;70631;50.436;7.826;2023-07-31T12:18:15;98503.75;;;24.08;57.65
81155;BME280;70631;50.436;7.826;2023-07-31T12:20:48;98496.13;;;24.27;56.22
81155;BME280;70631;50.436;7.826;2023-07-31T12:23:18;98494.09;;;24.51;55.68
81155;BME280;70631;50.436;7.826;2023-07-31T12:25:44;98491.53;;;24.83;55.01
81155;BME280;70631;50.436;7.826;2023-07-31T12:28:10;98503.28;;;25.06;54.28
81155;BME280;70631;50.436;7.826;2023-07-31T12:30:39;98498.63;;;25.28;52.87
81155;BME280;70631;50.436;7.826;2023-07-31T12:33:15;98487.56;;;25.62;53.10
81155;BME280;70631;50.436;7.826;2023-07-31T12:35:47;98502.91;;;25.68;51.51
81155;BME280;70631;50.436;7.826;2023-07-31T12:38:13;98481.00;;;25.63;52.05
81155;BME280;70631;50.436;7.826;2023-07-31T12:40:40;98487.41;;;25.73;51.84
81155;BME280;70631;50.436;7.826;2023-07-31T12:43:06;98472.66;;;25.74;51.89
81155;BME280;70631;50.436;7.826;2023-07-31T12:45:32;98477.31;;;25.74;51.87
81155;BME280;70631;50.436;7.826;2023-07-31T12:47:58;98476.94;;;25.92;51.34
81155;BME280;70631;50.436;7.826;2023-07-31T12:50:24;98462.53;;;26.02;49.94
81155;BME280;70631;50.436;7.826;2023-07-31T12:52:50;98472.56;;;25.91;49.66
81155;BME280;70631;50.436;7.826;2023-07-31T12:55:16;98474.34;;;25.80;51.09
81155;BME280;70631;50.436;7.826;2023-07-31T12:57:41;98475.97;;;25.76;50.43
81155;BME280;70631;50.436;7.826;2023-07-31T13:00:09;98474.22;;;25.65;50.54
81155;BME280;70631;50.436;7.826;2023-07-31T13:02:35;98467.38;;;25.63;51.27
81155;BME280;70631;50.436;7.826;2023-07-31T13:05:00;98472.75;;;25.57;50.88
81155;BME280;70631;50.436;7.826;2023-07-31T13:07:26;98471.06;;;25.51;50.61